createdAt,value
2023-02-09T00:01:30.249Z,10.73
2023-02-09T00:03:58.443Z,10.52
2023-02-09T00:06:26.457Z,10.70
2023-02-09T00:08:53.907Z,11.02
2023-02-09T00:11:47.776Z,11.52
2023-02-09T00:14:18.176Z,11.13
2023-02-09T00:16:46.278Z,12.82
2023-02-09T00:19:13.625Z,14.93
2023-02-09T00:21:41.577Z,9.88
2023-02-09T00:24:12.703Z,10.82
2023-02-09T00:26:40.982Z,12.57
2023-02-09T00:29:08.739Z,9.55
2023-02-09T00:31:35.872Z,10.55
2023-02-09T00:34:02.824Z,10.90
2023-02-09T00:36:30.126Z,9.68
2023-02-09T00:38:57.101Z,8.27
2023-02-09T00:41:42.502Z,9.52
2023-02-09T00:44:10.893Z,17.33
2023-02-09T00:46:37.859Z,8.85
2023-02-09T00:49:05.075Z,13.68
2023-02-09T00:51:32.024Z,7.45
2023-02-09T00:53:58.890Z,8.80
2023-02-09T00:56:25.757Z,8.70
2023-02-09T00:58:52.575Z,11.20
2023-02-09T01:01:19.440Z,10.13
2023-02-09T01:03:46.315Z,8.88
2023-02-09T01:06:13.104Z,10.18
2023-02-09T01:08:39.964Z,9.52
2023-02-09T01:11:15.464Z,8.27
2023-02-09T01:13:44.240Z,6.85
2023-02-09T01:16:14.742Z,9.98
2023-02-09T01:18:42.674Z,6.45
2023-02-09T01:21:12.072Z,10.20
2023-02-09T01:23:38.919Z,12.90
2023-02-09T01:26:08.309Z,7.75
2023-02-09T01:28:36.079Z,9.07
2023-02-09T01:31:03.578Z,11.05
2023-02-09T01:33:30.766Z,6.60
2023-02-09T01:36:04.641Z,8.18
2023-02-09T01:38:31.442Z,8.52
2023-02-09T01:40:58.342Z,6.05
2023-02-09T01:43:25.182Z,7.03
2023-02-09T01:45:55.318Z,7.57
2023-02-09T01:48:28.451Z,9.23
2023-02-09T01:50:59.353Z,7.85
2023-02-09T01:53:27.514Z,7.68
2023-02-09T01:56:03.638Z,7.00
2023-02-09T01:58:31.172Z,11.55
2023-02-09T02:00:59.911Z,12.80
2023-02-09T02:03:28.509Z,5.40
2023-02-09T02:06:05.082Z,9.63
2023-02-09T02:08:57.217Z,9.10
2023-02-09T02:11:27.688Z,8.52
2023-02-09T02:13:54.604Z,12.65
2023-02-09T02:16:30.210Z,9.80
2023-02-09T02:19:28.719Z,7.18
2023-02-09T02:22:33.791Z,7.07
2023-02-09T02:28:01.978Z,12.07
2023-02-09T02:30:47.960Z,9.30
2023-02-09T02:33:30.092Z,8.68
2023-02-09T02:36:28.629Z,8.95
2023-02-09T02:39:06.614Z,6.35
2023-02-09T02:42:12.112Z,10.20
2023-02-09T02:44:42.845Z,10.23
2023-02-09T02:47:13.947Z,8.55
2023-02-09T02:49:53.260Z,7.78
2023-02-09T02:52:20.130Z,7.20
2023-02-09T02:54:53.085Z,5.38
2023-02-09T02:57:25.411Z,7.63
2023-02-09T03:00:02.892Z,6.32
2023-02-09T03:02:34.438Z,9.90
2023-02-09T03:05:04.292Z,13.50
2023-02-09T03:07:32.924Z,10.38
2023-02-09T03:10:01.993Z,9.85
2023-02-09T03:12:58.098Z,7.32
2023-02-09T03:15:41.543Z,6.53
2023-02-09T03:18:32.061Z,9.77
2023-02-09T03:21:09.789Z,10.90
2023-02-09T03:23:44.320Z,9.88
2023-02-09T03:26:23.239Z,9.70
2023-02-09T03:28:54.794Z,8.27
2023-02-09T03:31:23.078Z,7.55
2023-02-09T03:33:51.177Z,6.85
2023-02-09T03:36:20.459Z,7.85
2023-02-09T03:38:47.237Z,11.07
2023-02-09T03:41:14.156Z,6.05
2023-02-09T03:43:59.360Z,9.25
2023-02-09T03:46:26.275Z,8.45
2023-02-09T03:48:53.116Z,10.98
2023-02-09T03:51:19.949Z,10.40
2023-02-09T03:53:47.456Z,9.93
2023-02-09T03:56:14.255Z,8.70
2023-02-09T03:58:41.181Z,12.20
2023-02-09T04:01:10.203Z,9.98
2023-02-09T04:03:39.805Z,12.30
2023-02-09T04:06:06.843Z,10.50
2023-02-09T04:08:33.809Z,9.90
2023-02-09T04:11:00.922Z,11.63
2023-02-09T04:13:28.098Z,11.63
2023-02-09T04:15:55.401Z,11.25
2023-02-09T04:18:22.357Z,7.95
2023-02-09T04:20:49.161Z,7.65
2023-02-09T04:23:16.243Z,7.38
2023-02-09T04:25:43.185Z,10.25
2023-02-09T04:28:10.106Z,5.05
2023-02-09T04:30:37.008Z,10.57
2023-02-09T04:33:03.995Z,11.25
2023-02-09T04:35:30.804Z,6.50
2023-02-09T04:37:57.635Z,15.35
2023-02-09T04:40:24.575Z,9.98
2023-02-09T04:42:51.418Z,7.50
2023-02-09T04:45:18.434Z,10.18
2023-02-09T04:47:45.258Z,7.43
2023-02-09T04:50:12.164Z,16.30
2023-02-09T04:52:39.006Z,6.50
2023-02-09T04:55:06.217Z,10.40
2023-02-09T04:57:51.738Z,9.27
2023-02-09T05:00:19.038Z,9.52
2023-02-09T05:02:46.006Z,7.68
2023-02-09T05:05:12.925Z,10.68
2023-02-09T05:07:39.708Z,6.88
2023-02-09T05:10:07.061Z,8.43
2023-02-09T05:12:33.957Z,14.95
2023-02-09T05:15:00.841Z,7.10
2023-02-09T05:17:27.701Z,12.35
2023-02-09T05:19:54.674Z,12.48
2023-02-09T05:22:21.489Z,10.88
2023-02-09T05:24:48.321Z,7.45
2023-02-09T05:27:15.374Z,7.40
2023-02-09T05:29:44.886Z,16.05
2023-02-09T05:32:11.829Z,6.80
2023-02-09T05:34:38.711Z,6.03
2023-02-09T05:37:05.552Z,12.65
2023-02-09T05:39:32.371Z,11.70
2023-02-09T05:42:17.302Z,7.55
2023-02-09T05:44:48.779Z,14.43
2023-02-09T05:47:18.699Z,15.48
2023-02-09T05:49:45.612Z,8.98
2023-02-09T05:52:13.125Z,6.90
2023-02-09T05:54:40.026Z,9.50
2023-02-09T05:57:07.249Z,10.55
2023-02-09T05:59:34.223Z,14.70
2023-02-09T06:02:01.783Z,8.10
2023-02-09T06:04:28.788Z,5.85
2023-02-09T06:06:56.321Z,8.00
2023-02-09T06:09:23.936Z,6.95
2023-02-09T06:11:50.937Z,11.27
2023-02-09T06:14:17.899Z,7.82
2023-02-09T06:16:45.097Z,12.60
2023-02-09T06:19:20.522Z,8.85
2023-02-09T06:21:47.531Z,5.57
2023-02-09T06:24:15.484Z,9.10
2023-02-09T06:26:42.776Z,7.25
2023-02-09T06:29:09.630Z,9.15
2023-02-09T06:31:37.210Z,7.40
2023-02-09T06:34:05.722Z,7.18
2023-02-09T06:36:33.042Z,11.40
2023-02-09T06:39:00.640Z,10.00
2023-02-09T06:41:27.579Z,21.42
2023-02-09T06:43:54.403Z,14.00
2023-02-09T06:46:21.356Z,9.32
2023-02-09T06:48:48.225Z,5.13
2023-02-09T06:51:16.649Z,6.15
2023-02-09T06:53:44.114Z,13.43
2023-02-09T06:56:12.555Z,6.70
2023-02-09T06:58:40.802Z,8.15
2023-02-09T07:01:11.021Z,10.75
2023-02-09T07:03:38.916Z,10.27
2023-02-09T07:06:11.473Z,10.32
2023-02-09T07:08:38.634Z,8.75
2023-02-09T07:11:08.244Z,17.02
2023-02-09T07:13:36.111Z,7.53
2023-02-09T07:16:05.268Z,7.78
2023-02-09T07:18:32.285Z,11.13
2023-02-09T07:21:02.197Z,8.15
2023-02-09T07:23:29.736Z,12.20
2023-02-09T07:25:56.831Z,8.02
2023-02-09T07:28:23.664Z,9.40
2023-02-09T07:30:52.408Z,9.70
2023-02-09T07:33:20.123Z,7.22
2023-02-09T07:35:48.643Z,9.10
2023-02-09T07:38:15.699Z,7.30
2023-02-09T07:40:46.805Z,6.75
2023-02-09T07:43:14.535Z,15.00
2023-02-09T07:45:42.437Z,10.13
2023-02-09T07:48:11.047Z,7.20
2023-02-09T07:50:38.449Z,8.82
2023-02-09T07:53:05.340Z,10.18
2023-02-09T07:55:32.190Z,7.75
2023-02-09T07:57:59.327Z,10.60
2023-02-09T08:00:26.234Z,8.82
2023-02-09T08:02:53.139Z,12.80
2023-02-09T08:05:28.471Z,12.88
2023-02-09T08:07:56.166Z,8.73
2023-02-09T08:10:23.535Z,8.77
2023-02-09T08:13:02.805Z,10.15
2023-02-09T08:15:39.877Z,9.20
2023-02-09T08:18:13.070Z,10.35
2023-02-09T08:20:40.791Z,6.53
2023-02-09T08:23:20.113Z,9.80
2023-02-09T08:25:51.373Z,7.40
2023-02-09T08:28:31.857Z,7.03
2023-02-09T08:31:05.325Z,16.10
2023-02-09T08:33:32.153Z,10.23
2023-02-09T08:35:59.054Z,11.77
2023-02-09T08:38:25.969Z,9.95
2023-02-09T08:40:52.840Z,9.07
2023-02-09T08:43:19.667Z,7.90
2023-02-09T08:45:47.224Z,15.15
2023-02-09T08:48:14.508Z,9.57
2023-02-09T08:50:41.326Z,12.35
2023-02-09T08:53:08.132Z,9.65
2023-02-09T08:55:37.597Z,12.82
2023-02-09T08:58:04.976Z,7.00
2023-02-09T09:00:32.255Z,12.13
2023-02-09T09:02:59.111Z,7.95
2023-02-09T09:05:26.108Z,19.00
2023-02-09T09:07:52.904Z,10.25
2023-02-09T09:10:19.927Z,9.60
2023-02-09T09:12:46.893Z,7.20
2023-02-09T09:15:13.722Z,11.88
2023-02-09T09:17:40.596Z,11.88
2023-02-09T09:20:08.072Z,10.05
2023-02-09T09:22:35.338Z,13.68
2023-02-09T09:25:02.454Z,10.57
2023-02-09T09:27:29.368Z,10.43
2023-02-09T09:29:56.491Z,11.00
2023-02-09T09:32:24.934Z,9.63
2023-02-09T09:34:57.766Z,12.98
2023-02-09T09:37:30.969Z,12.40
2023-02-09T09:39:57.872Z,9.82
2023-02-09T09:42:33.401Z,7.78
2023-02-09T09:45:00.697Z,15.82
2023-02-09T09:47:42.594Z,9.63
2023-02-09T09:50:22.594Z,10.45
2023-02-09T09:53:01.783Z,10.25
2023-02-09T09:55:33.131Z,10.15
2023-02-09T09:58:04.255Z,11.35
2023-02-09T10:00:56.537Z,7.45
2023-02-09T10:03:24.478Z,13.30
2023-02-09T10:06:02.784Z,15.88
2023-02-09T10:08:34.943Z,13.55
2023-02-09T10:11:15.090Z,11.75
2023-02-09T10:13:52.300Z,10.55
2023-02-09T10:16:40.266Z,15.27
2023-02-09T10:19:20.184Z,9.25
2023-02-09T10:21:48.973Z,10.02
2023-02-09T10:24:23.924Z,16.33
2023-02-09T10:27:15.847Z,9.85
2023-02-09T10:29:45.679Z,12.93
2023-02-09T10:32:40.926Z,9.20
2023-02-09T10:35:45.117Z,10.15
2023-02-09T10:38:24.154Z,8.27
2023-02-09T10:40:51.575Z,10.30
2023-02-09T10:43:24.068Z,22.70
2023-02-09T10:46:01.753Z,7.40
2023-02-09T10:48:38.760Z,8.60
2023-02-09T10:51:08.862Z,11.00
2023-02-09T10:53:55.686Z,8.77
2023-02-09T10:56:25.598Z,9.20
2023-02-09T10:59:13.962Z,10.95
2023-02-09T11:01:44.209Z,13.70
2023-02-09T11:04:37.394Z,11.18
2023-02-09T11:07:10.973Z,15.52
2023-02-09T11:09:52.021Z,15.45
2023-02-09T11:12:22.723Z,11.50
2023-02-09T11:14:49.820Z,9.82
2023-02-09T11:17:36.742Z,10.70
2023-02-09T11:20:30.820Z,14.85
2023-02-09T11:23:22.446Z,10.73
2023-02-09T11:26:01.599Z,11.15
2023-02-09T11:28:35.003Z,12.23
2023-02-09T11:31:14.059Z,15.60
2023-02-09T11:33:59.641Z,12.23
2023-02-09T11:36:59.405Z,13.30
2023-02-09T11:39:42.152Z,12.10
2023-02-09T11:42:39.863Z,10.93
2023-02-09T11:45:31.678Z,15.45
2023-02-09T11:48:28.489Z,10.18
2023-02-09T11:51:04.063Z,9.73
2023-02-09T11:53:40.847Z,10.00
2023-02-09T11:56:19.923Z,7.18
2023-02-09T11:59:24.879Z,11.50
2023-02-09T12:02:16.458Z,8.77
2023-02-09T12:04:57.882Z,10.63
2023-02-09T12:07:37.535Z,11.43
2023-02-09T12:10:22.981Z,10.07
2023-02-09T12:13:02.011Z,8.57
2023-02-09T12:15:53.336Z,11.05
2023-02-09T12:18:24.289Z,12.10
2023-02-09T12:20:56.681Z,11.27
2023-02-09T12:23:33.927Z,14.23
2023-02-09T12:26:16.018Z,16.40
2023-02-09T12:28:53.845Z,19.10
2023-02-09T12:31:26.845Z,18.70
2023-02-09T12:34:00.056Z,14.50
2023-02-09T12:36:35.006Z,14.93
2023-02-09T12:39:04.945Z,13.52
2023-02-09T12:41:52.105Z,10.15
2023-02-09T12:44:20.601Z,13.90
2023-02-09T12:46:53.577Z,14.00
2023-02-09T12:49:29.635Z,12.30
2023-02-09T12:51:59.666Z,9.60
2023-02-09T12:54:44.899Z,14.32
2023-02-09T12:57:20.430Z,12.32
2023-02-09T12:59:50.598Z,13.05
2023-02-09T13:02:46.412Z,13.13
2023-02-09T13:05:16.385Z,13.27
2023-02-09T13:08:01.794Z,12.75
2023-02-09T13:10:31.727Z,14.93
2023-02-09T13:13:21.477Z,14.55
2023-02-09T13:15:51.416Z,15.50
2023-02-09T13:18:45.816Z,14.18
2023-02-09T13:21:38.691Z,5.40
2023-02-09T13:24:15.819Z,14.70
2023-02-09T13:26:54.773Z,17.25
2023-02-09T13:29:32.605Z,12.73
2023-02-09T13:32:17.940Z,11.93
2023-02-09T13:35:10.657Z,13.45
2023-02-09T13:38:15.913Z,19.08
2023-02-09T13:40:48.620Z,11.40
2023-02-09T13:43:23.400Z,15.50
2023-02-09T13:45:55.906Z,11.27
2023-02-09T13:48:33.307Z,11.45
2023-02-09T13:51:20.839Z,16.40
2023-02-09T13:54:02.393Z,17.52
2023-02-09T13:56:31.668Z,14.18
2023-02-09T13:58:59.863Z,15.27
2023-02-09T14:01:33.774Z,13.18
2023-02-09T14:04:18.766Z,18.35
2023-02-09T14:06:56.358Z,16.10
2023-02-09T14:09:40.302Z,17.55
2023-02-09T14:12:15.588Z,17.58
2023-02-09T14:15:05.526Z,12.73
2023-02-09T14:17:38.929Z,19.70
2023-02-09T14:20:20.784Z,23.27
2023-02-09T14:22:57.358Z,17.40
2023-02-09T14:25:25.338Z,18.98
2023-02-09T14:27:53.036Z,17.73
2023-02-09T14:30:24.494Z,18.20
2023-02-09T14:32:56.534Z,28.98
2023-02-09T14:35:33.829Z,21.42
2023-02-09T14:38:03.019Z,21.50
2023-02-09T14:40:34.818Z,26.98
2023-02-09T14:43:09.196Z,27.73
2023-02-09T14:48:24.567Z,21.38
2023-02-09T14:50:57.685Z,20.70
2023-02-09T14:53:47.360Z,18.52
2023-02-09T14:56:35.381Z,25.73
2023-02-09T14:59:02.162Z,22.23
2023-02-09T15:01:29.075Z,23.20
2023-02-09T15:03:55.959Z,21.10
2023-02-09T15:06:24.236Z,22.40
2023-02-09T15:08:51.157Z,20.52
2023-02-09T15:11:42.953Z,27.42
2023-02-09T15:14:11.548Z,28.98
2023-02-09T15:16:38.493Z,21.90
2023-02-09T15:19:15.155Z,23.90
2023-02-09T15:21:42.006Z,27.45
2023-02-09T15:24:09.044Z,24.00
2023-02-09T15:26:37.239Z,18.05
2023-02-09T15:29:15.795Z,22.83
2023-02-09T15:31:42.867Z,23.67
2023-02-09T15:34:14.695Z,22.17
2023-02-09T15:36:42.844Z,18.52
2023-02-09T15:39:23.647Z,19.67
2023-02-09T15:42:09.569Z,22.65
2023-02-09T15:44:54.999Z,22.92
2023-02-09T15:47:41.174Z,25.67
2023-02-09T15:50:08.336Z,30.05
2023-02-09T15:52:35.321Z,22.63
2023-02-09T15:55:02.532Z,18.13
2023-02-09T15:57:29.385Z,17.20
2023-02-09T15:59:56.529Z,18.60
2023-02-09T16:02:23.665Z,21.73
2023-02-09T16:04:50.906Z,16.33
2023-02-09T16:07:25.197Z,15.73
2023-02-09T16:12:19.109Z,21.00
2023-02-09T16:14:45.971Z,21.00
2023-02-09T16:17:12.874Z,21.83
2023-02-09T16:19:39.973Z,28.67
2023-02-09T16:22:07.318Z,16.50
2023-02-09T16:24:47.156Z,14.70
2023-02-09T16:27:28.359Z,19.73
2023-02-09T16:29:56.713Z,22.60
2023-02-09T16:32:25.177Z,21.55
2023-02-09T16:34:52.411Z,15.82
2023-02-09T16:37:29.185Z,15.52
2023-02-09T16:39:58.243Z,18.20
2023-02-09T16:42:25.566Z,12.93
2023-02-09T16:44:52.966Z,17.92
2023-02-09T16:47:27.268Z,16.77
2023-02-09T16:52:27.067Z,15.38
2023-02-09T16:54:58.164Z,15.15
2023-02-09T16:57:27.250Z,15.60
2023-02-09T16:59:54.694Z,18.20
2023-02-09T17:02:54.934Z,23.67
2023-02-09T17:05:25.182Z,15.90
2023-02-09T17:07:58.164Z,24.67
2023-02-09T17:10:28.566Z,19.02
2023-02-09T17:12:55.603Z,16.45
2023-02-09T17:15:30.564Z,18.23
2023-02-09T17:18:05.345Z,16.75
2023-02-09T17:20:37.562Z,27.08
2023-02-09T17:23:05.485Z,18.65
2023-02-09T17:25:33.260Z,18.35
2023-02-09T17:28:00.334Z,17.50
2023-02-09T17:30:27.481Z,16.23
2023-02-09T17:33:06.428Z,22.85
2023-02-09T17:36:03.755Z,19.35
2023-02-09T17:38:26.555Z,21.17
2023-02-09T17:40:55.768Z,21.10
2023-02-09T17:43:23.535Z,23.05
2023-02-09T17:45:51.301Z,19.30
2023-02-09T17:48:22.418Z,23.55
2023-02-09T17:50:52.661Z,20.85
2023-02-09T17:53:24.919Z,20.63
2023-02-09T17:55:54.269Z,23.05
2023-02-09T17:58:21.152Z,19.77
2023-02-09T18:00:48.324Z,18.13
2023-02-09T18:03:18.255Z,23.55
2023-02-09T18:05:48.958Z,18.95
2023-02-09T18:08:16.162Z,21.67
2023-02-09T18:10:43.071Z,22.08
2023-02-09T18:13:16.908Z,21.67
2023-02-09T18:15:44.296Z,19.95
2023-02-09T18:18:11.403Z,23.23
2023-02-09T18:20:38.446Z,21.42
2023-02-09T18:23:05.504Z,25.67
2023-02-09T18:25:35.729Z,19.73
2023-02-09T18:28:04.368Z,30.10
2023-02-09T18:30:34.431Z,21.15
2023-02-09T18:33:01.658Z,21.20
2023-02-09T18:35:39.006Z,19.05
2023-02-09T18:38:08.343Z,24.75
2023-02-09T18:40:35.443Z,16.98
2023-02-09T18:43:04.735Z,25.92
2023-02-09T18:45:32.133Z,21.67
2023-02-09T18:47:59.847Z,26.35
2023-02-09T18:50:29.631Z,19.35
2023-02-09T18:53:02.054Z,22.42
2023-02-09T18:55:31.528Z,19.90
2023-02-09T18:58:01.138Z,16.88
2023-02-09T19:00:29.043Z,22.55
2023-02-09T19:03:00.014Z,19.73
2023-02-09T19:05:30.533Z,21.02
2023-02-09T19:07:59.555Z,24.15
2023-02-09T19:10:27.379Z,20.02
2023-02-09T19:12:55.763Z,25.85
2023-02-09T19:15:25.748Z,24.00
2023-02-09T19:17:53.932Z,19.90
2023-02-09T19:20:26.296Z,20.42
2023-02-09T19:22:55.341Z,28.80
2023-02-09T19:25:24.567Z,17.60
2023-02-09T19:27:52.777Z,22.08
2023-02-09T19:30:24.917Z,28.00
2023-02-09T19:32:57.954Z,24.38
2023-02-09T19:35:25.856Z,18.42
2023-02-09T19:37:54.494Z,29.98
2023-02-09T19:40:28.231Z,22.85
2023-02-09T19:42:56.833Z,24.23
2023-02-09T19:45:23.996Z,25.35
2023-02-09T19:47:51.195Z,21.77
2023-02-09T19:50:18.354Z,22.60
2023-02-09T19:52:47.656Z,28.35
2023-02-09T19:55:14.845Z,25.88
2023-02-09T19:57:42.832Z,28.05
2023-02-09T20:00:14.720Z,29.17
2023-02-09T20:02:42.018Z,36.17
2023-02-09T20:05:09.199Z,20.17
2023-02-09T20:07:36.502Z,25.67
2023-02-09T20:10:04.264Z,21.15
2023-02-09T20:12:32.518Z,20.67
2023-02-09T20:14:59.413Z,20.27
2023-02-09T20:17:27.989Z,23.13
2023-02-09T20:19:54.887Z,21.35
2023-02-09T20:22:24.572Z,24.55
2023-02-09T20:24:51.416Z,20.98
2023-02-09T20:27:19.131Z,25.77
2023-02-09T20:29:45.991Z,28.40
2023-02-09T20:32:12.899Z,25.38
2023-02-09T20:34:39.818Z,33.05
2023-02-09T20:37:06.764Z,27.48
2023-02-09T20:39:33.779Z,25.38
2023-02-09T20:42:19.563Z,29.63
2023-02-09T20:45:05.090Z,26.38
2023-02-09T20:47:32.092Z,24.00
2023-02-09T20:50:00.473Z,25.17
2023-02-09T20:52:28.543Z,29.23
2023-02-09T20:54:55.960Z,26.42
2023-02-09T20:57:29.210Z,32.47
2023-02-09T20:59:57.914Z,28.30
2023-02-09T21:02:25.894Z,25.30
2023-02-09T21:04:57.245Z,34.15
2023-02-09T21:07:25.379Z,35.17
2023-02-09T21:09:54.166Z,30.55
2023-02-09T21:12:24.382Z,26.08
2023-02-09T21:14:51.389Z,31.60
2023-02-09T21:17:19.702Z,34.08
2023-02-09T21:19:46.959Z,28.88
2023-02-09T21:22:15.487Z,29.60
2023-02-09T21:24:42.533Z,30.48
2023-02-09T21:27:09.537Z,24.45
2023-02-09T21:29:36.628Z,25.52
2023-02-09T21:32:05.451Z,30.75
2023-02-09T21:34:32.848Z,37.03
2023-02-09T21:37:00.102Z,31.23
2023-02-09T21:39:26.919Z,31.05
2023-02-09T21:42:12.695Z,29.38
2023-02-09T21:44:39.539Z,32.67
2023-02-09T21:47:06.605Z,31.77
2023-02-09T21:49:33.921Z,32.90
2023-02-09T21:52:00.827Z,30.88
2023-02-09T21:54:33.054Z,34.30
2023-02-09T21:57:01.196Z,36.33
2023-02-09T21:59:28.870Z,33.60
2023-02-09T22:01:56.504Z,35.63
2023-02-09T22:04:23.606Z,29.98
2023-02-09T22:06:50.525Z,32.90
2023-02-09T22:09:19.964Z,30.95
2023-02-09T22:11:46.857Z,32.78
2023-02-09T22:14:13.683Z,26.30
2023-02-09T22:16:40.908Z,34.13
2023-02-09T22:19:07.904Z,27.23
2023-02-09T22:21:35.008Z,23.65
2023-02-09T22:24:01.862Z,29.23
2023-02-09T22:26:28.720Z,41.45
2023-02-09T22:28:55.618Z,35.17
2023-02-09T22:31:22.516Z,26.17
2023-02-09T22:33:54.005Z,31.45
2023-02-09T22:36:22.043Z,33.72
2023-02-09T22:38:48.934Z,33.00
2023-02-09T22:41:21.579Z,32.33
2023-02-09T22:43:49.572Z,32.03
2023-02-09T22:46:16.556Z,35.38
2023-02-09T22:48:43.623Z,27.40
2023-02-09T22:51:17.058Z,29.10
2023-02-09T22:53:44.997Z,29.48
2023-02-09T22:56:12.512Z,33.30
2023-02-09T22:58:39.465Z,33.25
2023-02-09T23:01:07.303Z,33.28
2023-02-09T23:03:34.554Z,32.53
2023-02-09T23:06:03.344Z,26.23
2023-02-09T23:08:30.678Z,25.02
2023-02-09T23:11:02.966Z,32.33
2023-02-09T23:13:32.510Z,23.67
2023-02-09T23:16:15.440Z,28.10
2023-02-09T23:18:48.911Z,26.02
2023-02-09T23:21:17.338Z,20.17
2023-02-09T23:23:44.632Z,25.10
2023-02-09T23:26:12.409Z,23.95
2023-02-09T23:28:39.709Z,31.17
2023-02-09T23:31:14.217Z,29.67
2023-02-09T23:33:41.555Z,27.30
2023-02-09T23:36:11.026Z,25.40
2023-02-09T23:38:38.177Z,36.58
2023-02-09T23:41:10.441Z,25.05
2023-02-09T23:43:38.117Z,26.45
2023-02-09T23:46:08.059Z,24.23
2023-02-09T23:48:35.206Z,22.13
2023-02-09T23:51:06.966Z,35.28
2023-02-09T23:53:34.685Z,28.48
2023-02-09T23:56:04.698Z,21.77
2023-02-09T23:58:37.399Z,27.10
